Time;durP1;ratioP1;P1;durP2;ratioP2;P2;SDS_P1;SDS_P2;PMS_P1;PMS_P2;Temp;Humidity;BMP_temperature;BMP_pressure;BME280_temperature;BME280_humidity;BME280_pressure;Samples;Min_cycle;Max_cycle;Signal;HPM_P1;HPM_P2
2021/01/14 00:01:43;;;;;;;;;;;;;;;2.23;70.13;98818.61;122960;1103;104603;-71
2021/01/14 00:04:09;;;;;;;;;;;;;;;2.24;71.06;98827.36;122904;1103;104593;-71
2021/01/14 00:06:34;;;;;;;;;;;;;;;2.26;70.91;98823.61;122949;1103;104590;-71
2021/01/14 00:09:00;;;;;;;;;;;;;;;2.28;69.40;98821.67;122877;1103;104570;-71
2021/01/14 00:11:25;;;;;;;;;;;;;;;2.28;70.19;98821.67;122915;1103;104689;-71
2021/01/14 00:13:51;;;;;;;;;;;;;;;2.28;70.15;98812.95;123101;1103;104692;-72
2021/01/14 00:16:16;;;;;;;;;;;;;;;2.24;70.86;98816.83;123033;1103;104567;-71
2021/01/14 00:18:42;;;;;;;;;;;;;;;2.18;70.18;98817.38;123152;1103;104596;-72
2021/01/14 00:21:07;;;;;;;;;;;;;;;2.14;70.10;98819.44;123148;1103;104594;-72
2021/01/14 00:23:33;;;;;;;;;;;;;;;2.08;70.86;98823.44;123084;1103;104599;-71
2021/01/14 00:25:58;;;;;;;;;;;;;;;2.03;70.05;98825.63;123031;1103;104606;-71
2021/01/14 00:28:24;;;;;;;;;;;;;;;2.00;69.35;98822.43;122960;1103;104596;-71
2021/01/14 00:30:49;;;;;;;;;;;;;;;2.00;69.64;98825.06;123056;1103;104650;-70
2021/01/14 00:33:15;;;;;;;;;;;;;;;1.96;70.01;98827.98;122969;1103;104587;-71
2021/01/14 00:35:40;;;;;;;;;;;;;;;1.98;71.09;98832.25;123065;1103;104577;-72
2021/01/14 00:38:06;;;;;;;;;;;;;;;1.99;69.63;98824.23;122998;1103;104593;-71
2021/01/14 00:40:33;;;;;;;;;;;;;;;2.03;69.91;98819.55;122958;1103;104698;-70
2021/01/14 00:42:59;;;;;;;;;;;;;;;2.03;69.85;98824.80;123101;1103;104596;-71
2021/01/14 00:45:26;;;;;;;;;;;;;;;2.04;70.56;98823.83;122995;1108;105206;-71
2021/01/14 00:47:51;;;;;;;;;;;;;;;2.06;69.49;98830.64;122977;1107;104663;-72
2021/01/14 00:50:17;;;;;;;;;;;;;;;2.03;70.33;98825.63;123039;1103;104618;-71
2021/01/14 00:52:43;;;;;;;;;;;;;;;2.00;70.10;98828.52;122996;1103;104599;-72
2021/01/14 00:55:09;;;;;;;;;;;;;;;2.00;69.71;98822.43;122941;1103;104690;-72
2021/01/14 00:57:35;;;;;;;;;;;;;;;2.00;70.28;98823.25;123076;1103;104615;-72
2021/01/14 01:00:02;;;;;;;;;;;;;;;2.02;70.45;98829.24;122972;1103;104683;-72
2021/01/14 01:02:27;;;;;;;;;;;;;;;2.04;70.42;98829.09;123010;1103;104596;-72
2021/01/14 01:04:53;;;;;;;;;;;;;;;2.07;69.59;98828.83;123073;1103;104692;-72
2021/01/14 01:07:18;;;;;;;;;;;;;;;2.08;70.50;98838.38;122972;1106;108313;-71
2021/01/14 01:09:44;;;;;;;;;;;;;;;2.10;70.06;98842.55;123084;1103;104580;-71
2021/01/14 01:12:10;;;;;;;;;;;;;;;2.13;69.63;98841.44;123050;1104;104596;-70
2021/01/14 01:14:35;;;;;;;;;;;;;;;2.10;70.75;98839.10;123017;1103;104616;-71
2021/01/14 01:17:01;;;;;;;;;;;;;;;2.11;69.89;98835.48;123087;1103;104599;-71
2021/01/14 01:19:27;;;;;;;;;;;;;;;2.11;69.51;98833.67;122953;1103;104690;-71
2021/01/14 01:21:52;;;;;;;;;;;;;;;2.13;70.62;98836.18;122975;1103;104692;-71
2021/01/14 01:24:17;;;;;;;;;;;;;;;2.13;70.37;98829.11;123027;1103;104647;-71
2021/01/14 01:26:43;;;;;;;;;;;;;;;2.15;70.11;98831.61;122642;1103;104655;-70
2021/01/14 01:29:09;;;;;;;;;;;;;;;2.18;70.32;98828.73;123031;1104;104689;-70
2021/01/14 01:31:38;;;;;;;;;;;;;;;2.22;70.08;98821.40;122993;1103;104683;-70
2021/01/14 01:34:04;;;;;;;;;;;;;;;2.22;71.10;98822.22;122978;1104;104683;-70
2021/01/14 01:36:29;;;;;;;;;;;;;;;2.22;70.29;98822.22;122882;1103;104634;-71
2021/01/14 01:38:55;;;;;;;;;;;;;;;2.21;70.39;98823.17;122991;1104;104602;-71
2021/01/14 01:41:20;;;;;;;;;;;;;;;2.23;70.36;98818.61;122846;1104;105079;-70
2021/01/14 01:43:48;;;;;;;;;;;;;;;2.25;69.56;98814.06;122977;1103;104608;-71
2021/01/14 01:46:22;;;;;;;;;;;;;;;2.27;70.43;98812.13;122873;1103;104651;-69
2021/01/14 01:48:47;;;;;;;;;;;;;;;2.29;69.46;98820.72;122925;1106;104571;-71
2021/01/14 01:51:13;;;;;;;;;;;;;;;2.30;70.79;98824.17;122852;1103;104602;-70
2021/01/14 01:53:38;;;;;;;;;;;;;;;2.32;71.03;98820.43;122916;1103;104692;-70
2021/01/14 01:56:04;;;;;;;;;;;;;;;2.31;70.27;98821.42;122862;1103;104639;-70
2021/01/14 01:58:32;;;;;;;;;;;;;;;2.33;71.12;98823.92;122959;1103;104692;-71
2021/01/14 02:00:58;;;;;;;;;;;;;;;2.34;70.80;98831.66;122833;1103;104695;-70
2021/01/14 02:03:23;;;;;;;;;;;;;;;2.38;70.28;98828.77;122888;1103;104600;-70
2021/01/14 02:05:49;;;;;;;;;;;;;;;2.38;69.89;98826.13;122984;1103;104603;-72
2021/01/14 02:08:23;;;;;;;;;;;;;;;2.41;69.91;98825.88;122958;1103;105018;-72
2021/01/14 02:11:03;;;;;;;;;;;;;;;2.46;69.58;98826.27;122967;1103;104631;-71
2021/01/14 02:13:33;;;;;;;;;;;;;;;2.54;69.68;98826.41;122984;1105;104621;-72
2021/01/14 02:16:01;;;;;;;;;;;;;;;2.62;69.59;98823.95;122968;1103;104593;-72
2021/01/14 02:18:28;;;;;;;;;;;;;;;2.67;70.17;98826.16;122993;1103;104642;-72
2021/01/14 02:20:59;;;;;;;;;;;;;;;2.72;71.03;98830.05;122931;1103;104577;-69
2021/01/14 02:23:34;;;;;;;;;;;;;;;2.78;70.92;98828.66;122839;1104;104762;-69
2021/01/14 02:26:10;;;;;;;;;;;;;;;2.80;69.44;98825.89;122847;1107;104581;-69
2021/01/14 02:28:38;;;;;;;;;;;;;;;2.84;69.82;98837.81;122818;1103;109318;-69
2021/01/14 02:31:04;;;;;;;;;;;;;;;2.87;70.60;98837.55;122893;1103;104577;-70
2021/01/14 02:33:30;;;;;;;;;;;;;;;2.85;69.58;98839.46;122890;1103;104612;-69
2021/01/14 02:35:55;;;;;;;;;;;;;;;2.84;70.85;98837.81;122949;1103;104603;-70
2021/01/14 02:38:21;;;;;;;;;;;;;;;2.79;70.03;98840.02;122849;1103;105079;-69
2021/01/14 02:40:46;;;;;;;;;;;;;;;2.74;70.87;98849.17;122942;1104;104688;-69
2021/01/14 02:43:12;;;;;;;;;;;;;;;2.71;70.09;98844.20;122856;1108;109348;-69
2021/01/14 02:45:37;;;;;;;;;;;;;;;2.67;69.44;98842.78;122854;1103;104599;-69
2021/01/14 02:48:04;;;;;;;;;;;;;;;2.66;70.84;98842.95;122939;1103;104615;-70
2021/01/14 02:50:33;;;;;;;;;;;;;;;2.62;70.55;98850.28;122858;1103;104596;-69
2021/01/14 02:52:59;;;;;;;;;;;;;;;2.62;69.38;98854.70;122855;1104;104648;-69
2021/01/14 02:55:26;;;;;;;;;;;;;;;2.59;69.47;98855.81;122832;1103;104688;-71
2021/01/14 02:57:51;;;;;;;;;;;;;;;2.55;69.91;98851.80;122927;1104;104692;-71
2021/01/14 03:00:17;;;;;;;;;;;;;;;2.49;69.31;98853.17;122835;1103;105199;-71
2021/01/14 03:02:42;;;;;;;;;;;;;;;2.44;71.10;98849.27;122983;1103;104709;-71
2021/01/14 03:05:08;;;;;;;;;;;;;;;2.41;70.06;98853.02;122938;1103;104982;-71
2021/01/14 03:07:34;;;;;;;;;;;;;;;2.40;69.69;98855.78;122861;1103;104612;-73
2021/01/14 03:09:59;;;;;;;;;;;;;;;2.39;70.64;98846.20;122943;1104;104760;-71
2021/01/14 03:12:25;;;;;;;;;;;;;;;2.33;70.38;98847.61;122862;1103;104573;-70
2021/01/14 03:14:50;;;;;;;;;;;;;;;2.31;70.56;98852.14;122843;1103;104680;-70
2021/01/14 03:17:15;;;;;;;;;;;;;;;2.28;70.86;98842.73;122957;1106;104704;-70
2021/01/14 03:19:41;;;;;;;;;;;;;;;2.26;71.19;98849.93;122906;1103;104634;-71
2021/01/14 03:22:06;;;;;;;;;;;;;;;2.23;70.73;98850.19;122937;1103;105101;-70
2021/01/14 03:24:32;;;;;;;;;;;;;;;2.18;71.04;98849.78;122850;1103;104574;-70
2021/01/14 03:26:57;;;;;;;;;;;;;;;2.09;70.91;98848.77;122983;1103;104600;-71
2021/01/14 03:29:54;;;;;;;;;;;;;;;2.07;71.13;98849.87;122874;1103;104609;-70
2021/01/14 03:32:19;;;;;;;;;;;;;;;2.03;69.79;98859.01;122824;1103;105251;-71
2021/01/14 03:34:45;;;;;;;;;;;;;;;2.01;69.53;98860.94;122885;1103;104600;-71
2021/01/14 03:37:11;;;;;;;;;;;;;;;1.97;70.15;98863.00;123056;1103;105076;-72
2021/01/14 03:39:36;;;;;;;;;;;;;;;1.96;69.75;98858.69;123003;1103;104583;-71
2021/01/14 03:42:02;;;;;;;;;;;;;;;1.99;70.53;98868.14;123068;1103;104570;-74
2021/01/14 03:44:27;;;;;;;;;;;;;;;2.03;69.83;98861.64;122984;1103;104593;-73
2021/01/14 03:46:53;;;;;;;;;;;;;;;2.09;69.75;98866.36;123093;1103;104565;-73
2021/01/14 03:49:18;;;;;;;;;;;;;;;2.10;71.31;98860.97;122978;1103;104669;-72
2021/01/14 03:51:44;;;;;;;;;;;;;;;2.11;71.15;98867.88;122972;1103;104602;-73
2021/01/14 03:54:13;;;;;;;;;;;;;;;2.13;70.65;98859.86;123154;1103;104573;-72
2021/01/14 03:56:39;;;;;;;;;;;;;;;2.15;69.49;98865.82;122969;1103;104600;-72
2021/01/14 03:59:06;;;;;;;;;;;;;;;2.13;69.75;98871.21;122986;1104;105006;-72
2021/01/14 04:01:32;;;;;;;;;;;;;;;2.10;70.54;98871.50;122958;1103;104705;-72
2021/01/14 04:03:57;;;;;;;;;;;;;;;2.07;69.47;98871.75;123060;1103;104590;-72
2021/01/14 04:06:29;;;;;;;;;;;;;;;2.00;69.80;98875.05;123013;1102;104706;-73
2021/01/14 04:08:54;;;;;;;;;;;;;;;1.88;69.66;98875.13;122945;1107;104610;-72
2021/01/14 04:11:20;;;;;;;;;;;;;;;1.84;69.96;98876.36;122997;1103;104590;-73
2021/01/14 04:13:45;;;;;;;;;;;;;;;1.79;69.96;98873.31;123032;1103;104603;-72
2021/01/14 04:16:14;;;;;;;;;;;;;;;1.78;70.46;98874.27;123027;1103;105021;-73
2021/01/14 04:18:40;;;;;;;;;;;;;;;1.75;69.78;98877.14;123076;1103;104596;-72
2021/01/14 04:21:05;;;;;;;;;;;;;;;1.73;70.74;98876.44;122993;1103;104756;-73
2021/01/14 04:23:31;;;;;;;;;;;;;;;1.71;70.24;98878.38;123055;1103;104597;-72
2021/01/14 04:25:56;;;;;;;;;;;;;;;1.74;70.90;98883.38;122936;1103;104661;-72
2021/01/14 04:28:22;;;;;;;;;;;;;;;1.75;69.64;98892.92;123047;1103;104692;-72
2021/01/14 04:30:47;;;;;;;;;;;;;;;1.74;70.66;98891.27;122967;1103;104702;-72
2021/01/14 04:33:13;;;;;;;;;;;;;;;1.70;70.62;98900.39;123085;1103;104568;-73
2021/01/14 04:36:05;;;;;;;;;;;;;;;1.70;70.92;98909.10;123019;1103;104567;-73
2021/01/14 04:38:30;;;;;;;;;;;;;;;1.67;70.69;98921.67;122992;1104;104855;-72
2021/01/14 04:41:00;;;;;;;;;;;;;;;1.63;69.82;98926.34;122921;1103;105050;-72
2021/01/14 04:43:27;;;;;;;;;;;;;;;1.59;70.70;98922.31;122976;1107;104594;-71
2021/01/14 04:45:54;;;;;;;;;;;;;;;1.55;70.91;98928.80;123071;1103;104610;-72
2021/01/14 04:48:21;;;;;;;;;;;;;;;1.52;70.33;98926.41;122962;1103;104635;-72
2021/01/14 04:50:47;;;;;;;;;;;;;;;1.51;70.20;98928.22;123029;1103;104679;-71
2021/01/14 04:53:13;;;;;;;;;;;;;;;1.49;70.24;98932.77;123052;1103;104596;-72
2021/01/14 04:55:43;;;;;;;;;;;;;;;1.50;70.17;98937.08;122996;1106;104692;-71
2021/01/14 04:58:14;;;;;;;;;;;;;;;1.49;70.80;98934.57;123571;1103;104692;-73
2021/01/14 05:00:41;;;;;;;;;;;;;;;1.50;70.62;98934.45;122968;1103;105024;-72
2021/01/14 05:03:13;;;;;;;;;;;;;;;1.50;70.92;98944.97;122946;1103;108354;-71
2021/01/14 05:05:39;;;;;;;;;;;;;;;1.49;71.08;98940.66;122937;1103;104605;-71
2021/01/14 05:08:06;;;;;;;;;;;;;;;1.51;71.20;98949.24;122987;1103;104596;-72
2021/01/14 05:10:33;;;;;;;;;;;;;;;1.49;71.08;98945.09;122990;1103;104699;-71
2021/01/14 05:12:59;;;;;;;;;;;;;;;1.51;71.11;98954.50;123090;1107;104638;-70
2021/01/14 05:15:26;;;;;;;;;;;;;;;1.50;71.40;98954.63;122936;1103;108319;-71
2021/01/14 05:17:52;;;;;;;;;;;;;;;1.47;71.12;98955.72;122992;1103;104698;-71
2021/01/14 05:20:18;;;;;;;;;;;;;;;1.48;71.12;98964.43;123016;1103;104625;-71
2021/01/14 05:22:46;;;;;;;;;;;;;;;1.45;71.05;98967.33;123026;1103;104678;-71
2021/01/14 05:25:11;;;;;;;;;;;;;;;1.44;71.12;98968.28;123010;1108;104955;-71
2021/01/14 05:27:37;;;;;;;;;;;;;;;1.44;71.25;98971.73;122975;1103;104647;-70
2021/01/14 05:30:02;;;;;;;;;;;;;;;1.44;70.44;98979.62;123037;1103;104676;-71
2021/01/14 05:32:35;;;;;;;;;;;;;;;1.41;71.30;98985.14;122938;1103;104599;-71
2021/01/14 05:35:01;;;;;;;;;;;;;;;1.42;71.23;98975.45;122979;1103;104925;-70
2021/01/14 05:37:27;;;;;;;;;;;;;;;1.41;70.45;98982.52;122993;1107;104609;-70
2021/01/14 05:39:52;;;;;;;;;;;;;;;1.40;71.15;98990.52;122949;1103;104583;-70
2021/01/14 05:42:19;;;;;;;;;;;;;;;1.37;70.75;98991.62;122821;1103;104643;-71
2021/01/14 05:44:45;;;;;;;;;;;;;;;1.40;71.26;98993.16;122870;1103;104679;-71
2021/01/14 05:47:22;;;;;;;;;;;;;;;1.42;71.17;99001.74;122921;1103;104600;-71
2021/01/14 05:49:58;;;;;;;;;;;;;;;1.43;71.05;99000.80;122903;1103;104606;-72
2021/01/14 05:52:25;;;;;;;;;;;;;;;1.42;70.16;99001.74;122961;1106;104596;-71
2021/01/14 05:54:56;;;;;;;;;;;;;;;1.42;70.35;98992.05;122941;1103;104606;-72
2021/01/14 05:57:27;;;;;;;;;;;;;;;1.38;71.21;98995.90;122951;1106;105076;-72
2021/01/14 05:59:54;;;;;;;;;;;;;;;1.43;71.05;98998.99;122942;1106;104612;-72
2021/01/14 06:02:27;;;;;;;;;;;;;;;1.43;70.36;98998.17;122947;1103;104572;-72
2021/01/14 06:04:53;;;;;;;;;;;;;;;1.44;70.72;99008.53;122949;1104;108395;-72
2021/01/14 06:07:18;;;;;;;;;;;;;;;1.44;70.43;99012.96;123000;1103;104573;-73
2021/01/14 06:09:48;;;;;;;;;;;;;;;1.45;70.82;99007.59;123064;1103;105107;-72
2021/01/14 06:12:14;;;;;;;;;;;;;;;1.44;70.80;99013.79;123008;1103;104596;-71
2021/01/14 06:14:40;;;;;;;;;;;;;;;1.42;70.01;99020.97;123002;1103;104594;-71
2021/01/14 06:17:07;;;;;;;;;;;;;;;1.40;70.84;99019.44;123036;1103;104619;-71
2021/01/14 06:19:33;;;;;;;;;;;;;;;1.33;70.11;99029.62;122963;1103;108412;-71
2021/01/14 06:21:59;;;;;;;;;;;;;;;1.30;70.32;99035.12;122996;1103;104610;-71
2021/01/14 06:24:29;;;;;;;;;;;;;;;1.27;70.30;99041.47;123031;1104;104698;-71
2021/01/14 06:27:04;;;;;;;;;;;;;;;1.30;71.23;99045.63;122896;1103;104593;-71
2021/01/14 06:29:30;;;;;;;;;;;;;;;1.31;70.62;99050.77;122809;1107;104692;-71
2021/01/14 06:32:09;;;;;;;;;;;;;;;1.35;71.24;99052.19;122842;1103;104574;-71
2021/01/14 06:34:35;;;;;;;;;;;;;;;1.37;71.09;99055.52;122843;1103;105344;-71
2021/01/14 06:37:05;;;;;;;;;;;;;;;1.39;70.97;99071.17;122926;1103;104606;-71
2021/01/14 06:39:36;;;;;;;;;;;;;;;1.40;71.43;99064.11;122851;1103;104682;-72
2021/01/14 06:42:09;;;;;;;;;;;;;;;1.42;71.43;99075.34;122852;1103;108934;-71
2021/01/14 06:44:40;;;;;;;;;;;;;;;1.43;70.35;99083.11;122846;1103;105148;-71
2021/01/14 06:47:09;;;;;;;;;;;;;;;1.49;71.21;99081.78;123024;1103;104573;-71
2021/01/14 06:49:37;;;;;;;;;;;;;;;1.46;71.27;99089.90;122963;1107;104683;-71
2021/01/14 06:52:09;;;;;;;;;;;;;;;1.46;70.83;99097.78;123003;1104;108309;-71
2021/01/14 06:54:37;;;;;;;;;;;;;;;1.46;71.29;99103.87;122928;1103;104597;-71
2021/01/14 06:57:13;;;;;;;;;;;;;;;1.46;70.89;99108.30;122977;1103;104603;-71
2021/01/14 06:59:39;;;;;;;;;;;;;;;1.47;71.21;99105.55;122975;1107;104628;-71
2021/01/14 07:02:04;;;;;;;;;;;;;;;1.43;70.45;99112.02;122937;1106;104644;-72
2021/01/14 07:04:37;;;;;;;;;;;;;;;1.37;70.48;99113.34;123056;1106;104580;-72
2021/01/14 07:07:28;;;;;;;;;;;;;;;1.25;70.62;99116.10;122941;1103;104602;-71
2021/01/14 07:10:07;;;;;;;;;;;;;;;1.20;71.58;99120.91;122803;1106;104612;-71
2021/01/14 07:12:34;;;;;;;;;;;;;;;1.24;71.55;99120.53;122860;1103;104612;-71
2021/01/14 07:15:12;;;;;;;;;;;;;;;1.24;71.06;99131.05;122828;1103;104570;-71
2021/01/14 07:17:39;;;;;;;;;;;;;;;1.25;71.20;99137.13;122843;1104;104696;-71
2021/01/14 07:20:10;;;;;;;;;;;;;;;1.26;70.98;99139.64;122902;1105;104619;-71
2021/01/14 07:22:41;;;;;;;;;;;;;;;1.23;71.75;99142.49;122885;1104;104594;-71
2021/01/14 07:25:09;;;;;;;;;;;;;;;1.22;70.96;99148.72;122843;1103;109275;-71
2021/01/14 07:27:35;;;;;;;;;;;;;;;1.27;71.72;99151.84;122856;1107;104689;-71
2021/01/14 07:30:01;;;;;;;;;;;;;;;1.25;71.62;99158.15;122858;1103;104596;-71
2021/01/14 07:32:45;;;;;;;;;;;;;;;1.27;71.80;99161.48;122924;1103;104926;-72
2021/01/14 07:35:29;;;;;;;;;;;;;;;1.30;71.78;99163.88;122963;1104;104609;-72
2021/01/14 07:37:55;;;;;;;;;;;;;;;1.34;71.56;99157.42;122964;1104;108403;-71
2021/01/14 07:40:28;;;;;;;;;;;;;;;1.37;70.81;99165.08;122958;1103;104590;-72
2021/01/14 07:42:54;;;;;;;;;;;;;;;1.43;71.40;99167.22;122959;1103;104692;-71
2021/01/14 07:45:22;;;;;;;;;;;;;;;1.48;71.25;99165.07;122995;1103;104692;-71
2021/01/14 07:47:47;;;;;;;;;;;;;;;1.55;71.54;99175.92;122968;1103;104577;-71
2021/01/14 07:50:23;;;;;;;;;;;;;;;1.54;71.58;99176.86;123031;1103;104599;-71
2021/01/14 07:52:50;;;;;;;;;;;;;;;1.60;70.40;99172.91;122916;1103;104583;-71
2021/01/14 07:55:28;;;;;;;;;;;;;;;1.57;70.53;99174.83;122990;1104;104679;-71
2021/01/14 07:58:06;;;;;;;;;;;;;;;1.55;70.74;99182.00;122963;1107;104594;-71
2021/01/14 08:00:32;;;;;;;;;;;;;;;1.55;70.62;99186.44;122955;1104;108300;-71
2021/01/14 08:03:06;;;;;;;;;;;;;;;1.52;70.52;99197.18;122979;1103;104609;-71
2021/01/14 08:05:39;;;;;;;;;;;;;;;1.56;71.10;99194.20;122950;1103;104596;-72
2021/01/14 08:08:23;;;;;;;;;;;;;;;1.61;71.59;99200.89;123028;1103;104599;-72
2021/01/14 08:11:08;;;;;;;;;;;;;;;1.70;71.35;99208.05;122957;1106;108422;-71
2021/01/14 08:13:52;;;;;;;;;;;;;;;1.78;70.87;99213.53;122985;1103;104590;-72
2021/01/14 08:16:31;;;;;;;;;;;;;;;1.78;70.31;99216.16;122956;1106;104618;-71
2021/01/14 08:19:14;;;;;;;;;;;;;;;1.83;70.67;99226.30;122975;1103;104578;-71
2021/01/14 08:21:41;;;;;;;;;;;;;;;1.89;71.39;99226.66;122959;1103;108390;-71
2021/01/14 08:24:06;;;;;;;;;;;;;;;1.98;70.10;99227.70;123001;1103;104690;-72
2021/01/14 08:26:50;;;;;;;;;;;;;;;2.03;70.57;99216.83;123039;1103;104663;-71
2021/01/14 08:29:27;;;;;;;;;;;;;;;1.98;71.24;99224.24;122967;1106;104609;-71
2021/01/14 08:31:53;;;;;;;;;;;;;;;1.97;70.04;99220.78;122934;1107;104686;-71
2021/01/14 08:34:19;;;;;;;;;;;;;;;2.00;70.63;99217.06;122915;1104;104644;-71
2021/01/14 08:36:45;;;;;;;;;;;;;;;1.98;69.74;99225.06;123044;1103;104996;-71
2021/01/14 08:39:10;;;;;;;;;;;;;;;1.90;70.17;99233.58;122968;1103;104632;-71
2021/01/14 08:41:36;;;;;;;;;;;;;;;1.89;70.17;99239.81;123016;1103;104590;-73
2021/01/14 08:44:02;;;;;;;;;;;;;;;1.89;70.81;99238.98;123052;1103;104596;-71
2021/01/14 08:46:38;;;;;;;;;;;;;;;1.91;69.65;99231.80;123024;1103;104567;-71
2021/01/14 08:49:10;;;;;;;;;;;;;;;1.92;69.48;99243.98;122990;1107;107328;-71
2021/01/14 08:51:37;;;;;;;;;;;;;;;1.90;69.95;99265.14;122950;1103;104603;-71
2021/01/14 08:54:04;;;;;;;;;;;;;;;1.92;70.24;99268.48;122979;1107;104679;-71
2021/01/14 08:56:29;;;;;;;;;;;;;;;1.91;69.56;99282.61;122858;1103;104586;-72
2021/01/14 08:58:59;;;;;;;;;;;;;;;1.82;70.47;99277.25;122902;1103;104689;-71
2021/01/14 09:01:25;;;;;;;;;;;;;;;1.81;70.65;99281.68;122821;1108;108985;-71
2021/01/14 09:03:53;;;;;;;;;;;;;;;1.81;70.13;99286.94;122852;1103;104599;-72
2021/01/14 09:06:29;;;;;;;;;;;;;;;1.81;70.67;99289.57;122895;1106;104597;-72
2021/01/14 09:08:57;;;;;;;;;;;;;;;1.81;69.85;99294.83;122833;1103;105028;-71
2021/01/14 09:11:23;;;;;;;;;;;;;;;1.76;70.87;99297.80;122924;1103;104573;-71
2021/01/14 09:13:59;;;;;;;;;;;;;;;1.70;69.89;99300.09;122844;1103;104600;-72
2021/01/14 09:16:24;;;;;;;;;;;;;;;1.70;70.13;99311.44;122878;1103;104651;-71
2021/01/14 09:18:50;;;;;;;;;;;;;;;1.69;70.36;99314.19;122886;1103;104625;-71
2021/01/14 09:21:15;;;;;;;;;;;;;;;1.66;70.75;99315.27;122909;1103;104570;-72
2021/01/14 09:23:41;;;;;;;;;;;;;;;1.64;70.63;99332.13;122851;1103;105035;-72
2021/01/14 09:26:10;;;;;;;;;;;;;;;1.62;70.64;99331.38;122953;1103;104637;-71
2021/01/14 09:28:36;;;;;;;;;;;;;;;1.53;69.87;99340.84;122884;1104;105165;-71
2021/01/14 09:31:05;;;;;;;;;;;;;;;1.41;70.83;99352.30;122882;1103;104603;-71
2021/01/14 09:33:32;;;;;;;;;;;;;;;1.33;70.87;99345.83;122868;1103;104596;-71
2021/01/14 09:36:06;;;;;;;;;;;;;;;1.37;70.41;99347.27;122849;1103;105075;-71
2021/01/14 09:38:42;;;;;;;;;;;;;;;1.38;70.60;99345.47;122869;1103;105171;-71
2021/01/14 09:41:08;;;;;;;;;;;;;;;1.37;69.81;99349.89;122856;1104;104692;-73
2021/01/14 09:43:38;;;;;;;;;;;;;;;1.35;70.08;99354.44;122670;1103;104573;-73
2021/01/14 09:46:03;;;;;;;;;;;;;;;1.38;70.21;99362.06;122576;1103;104603;-73
2021/01/14 09:48:31;;;;;;;;;;;;;;;1.37;70.69;99357.78;122570;1103;104609;-73
2021/01/14 09:50:57;;;;;;;;;;;;;;;1.38;70.72;99361.23;122590;1103;104590;-73
2021/01/14 09:53:22;;;;;;;;;;;;;;;1.35;70.43;99362.32;122619;1103;104571;-73
2021/01/14 09:55:48;;;;;;;;;;;;;;;1.29;70.56;99370.67;122589;1103;104740;-73
2021/01/14 09:58:18;;;;;;;;;;;;;;;1.28;70.77;99373.41;122656;1103;104597;-72
2021/01/14 10:00:50;;;;;;;;;;;;;;;1.24;70.17;99372.80;122683;1103;108450;-73
2021/01/14 10:03:17;;;;;;;;;;;;;;;1.27;70.10;99367.33;122936;1106;104590;-74
2021/01/14 10:05:43;;;;;;;;;;;;;;;1.40;70.75;99372.47;122946;1103;104570;-73
2021/01/14 10:08:11;;;;;;;;;;;;;;;1.46;70.20;99379.88;123031;1103;104699;-73
2021/01/14 10:10:37;;;;;;;;;;;;;;;1.46;69.83;99372.00;122960;1104;104644;-73
2021/01/14 10:13:02;;;;;;;;;;;;;;;1.48;70.77;99375.37;122958;1103;104609;-73
2021/01/14 10:15:28;;;;;;;;;;;;;;;1.45;69.90;99377.40;122926;1103;104593;-74
2021/01/14 10:17:53;;;;;;;;;;;;;;;1.44;70.78;99384.42;123080;1103;104666;-73
2021/01/14 10:20:19;;;;;;;;;;;;;;;1.47;70.91;99378.95;122989;1103;105028;-73
2021/01/14 10:22:51;;;;;;;;;;;;;;;1.56;70.16;99378.25;122990;1106;104740;-73
2021/01/14 10:25:17;;;;;;;;;;;;;;;1.65;70.07;99375.86;122978;1103;108373;-72
2021/01/14 10:28:02;;;;;;;;;;;;;;;1.73;69.61;99376.10;122830;1103;104625;-71
2021/01/14 10:30:28;;;;;;;;;;;;;;;1.85;69.79;99383.06;122579;1110;104577;-71
2021/01/14 10:33:04;;;;;;;;;;;;;;;1.90;70.61;99390.59;122561;1103;104597;-72
2021/01/14 10:35:30;;;;;;;;;;;;;;;1.93;69.77;99391.19;122564;1103;108368;-71
2021/01/14 10:38:06;;;;;;;;;;;;;;;1.98;69.03;99392.63;122632;1103;104661;-71
2021/01/14 10:40:49;;;;;;;;;;;;;;;1.91;70.08;99395.73;122558;1103;104648;-71
2021/01/14 10:43:14;;;;;;;;;;;;;;;1.92;69.38;99394.77;122621;1111;104591;-71
2021/01/14 10:45:41;;;;;;;;;;;;;;;1.95;68.78;99398.97;122450;1103;104933;-72
2021/01/14 10:48:07;;;;;;;;;;;;;;;1.93;69.29;99404.34;122641;1103;104567;-72
2021/01/14 10:50:41;;;;;;;;;;;;;;;1.94;69.09;99405.17;122682;1103;105200;-71
2021/01/14 10:53:06;;;;;;;;;;;;;;;1.99;69.48;99410.92;122975;1106;104602;-71
2021/01/14 10:55:32;;;;;;;;;;;;;;;2.00;69.83;99415.22;122820;1103;104612;-71
2021/01/14 10:57:59;;;;;;;;;;;;;;;2.02;68.50;99415.96;122976;1106;104622;-71
2021/01/14 11:00:32;;;;;;;;;;;;;;;1.96;68.72;99412.02;122943;1103;104586;-72
2021/01/14 11:03:09;;;;;;;;;;;;;;;1.93;68.31;99406.97;122927;1103;104596;-71
2021/01/14 11:05:47;;;;;;;;;;;;;;;1.91;68.56;99419.41;122983;1103;104651;-71
2021/01/14 11:08:17;;;;;;;;;;;;;;;1.93;68.12;99406.14;122814;1107;104589;-71
2021/01/14 11:10:44;;;;;;;;;;;;;;;1.94;69.43;99413.92;122644;1106;108415;-71
2021/01/14 11:13:30;;;;;;;;;;;;;;;2.01;69.50;99408.19;122969;1103;104690;-71
2021/01/14 11:15:58;;;;;;;;;;;;;;;2.08;68.96;99406.72;122793;1103;104612;-71
2021/01/14 11:18:25;;;;;;;;;;;;;;;2.08;69.14;99415.48;122482;1106;104615;-72
2021/01/14 11:20:51;;;;;;;;;;;;;;;2.08;68.67;99409.36;122550;1103;104600;-71
2021/01/14 11:23:16;;;;;;;;;;;;;;;2.06;68.10;99424.43;122600;1103;104574;-71
2021/01/14 11:25:42;;;;;;;;;;;;;;;2.06;69.04;99416.53;122439;1103;104637;-71
2021/01/14 11:28:07;;;;;;;;;;;;;;;2.10;68.39;99415.37;122530;1103;104700;-71
2021/01/14 11:30:33;;;;;;;;;;;;;;;2.20;68.50;99416.31;122463;1103;104580;-72
2021/01/14 11:32:58;;;;;;;;;;;;;;;2.24;68.56;99415.11;122592;1103;104570;-71
2021/01/14 11:35:24;;;;;;;;;;;;;;;2.28;68.87;99419.17;122438;1110;104609;-71
2021/01/14 11:37:50;;;;;;;;;;;;;;;2.26;69.63;99418.45;122453;1103;104599;-71
2021/01/14 11:40:16;;;;;;;;;;;;;;;2.24;67.75;99430.90;122508;1103;104650;-71
2021/01/14 11:42:41;;;;;;;;;;;;;;;2.15;67.78;99431.61;122400;1103;104577;-72
2021/01/14 11:45:07;;;;;;;;;;;;;;;2.12;68.18;99434.50;122538;1103;104594;-71
2021/01/14 11:47:33;;;;;;;;;;;;;;;2.14;69.46;99427.33;122878;1106;104596;-72
2021/01/14 11:49:58;;;;;;;;;;;;;;;2.17;69.56;99437.59;122551;1103;104688;-71
2021/01/14 11:52:24;;;;;;;;;;;;;;;2.13;68.74;99439.63;122547;1103;104594;-71
2021/01/14 11:54:49;;;;;;;;;;;;;;;2.09;68.64;99442.63;122749;1104;104628;-72
2021/01/14 11:57:15;;;;;;;;;;;;;;;1.97;68.36;99444.41;122946;1107;104692;-71
2021/01/14 11:59:41;;;;;;;;;;;;;;;1.89;69.05;99447.63;122818;1103;104715;-71
2021/01/14 12:02:06;;;;;;;;;;;;;;;1.84;68.94;99449.77;122893;1103;104644;-71
2021/01/14 12:04:32;;;;;;;;;;;;;;;1.78;68.72;99455.50;122912;1103;104608;-71
2021/01/14 12:06:57;;;;;;;;;;;;;;;1.75;68.55;99456.58;122861;1104;104608;-72
2021/01/14 12:09:23;;;;;;;;;;;;;;;1.71;69.45;99459.54;122974;1103;104654;-71
2021/01/14 12:11:52;;;;;;;;;;;;;;;1.61;69.35;99469.09;122841;1103;105021;-72
2021/01/14 12:14:18;;;;;;;;;;;;;;;1.61;69.72;99463.83;122878;1103;105075;-72
2021/01/14 12:16:43;;;;;;;;;;;;;;;1.57;68.92;99468.48;122897;1103;104615;-71
2021/01/14 12:19:09;;;;;;;;;;;;;;;1.55;68.85;99471.22;122942;1103;104647;-71
2021/01/14 12:21:34;;;;;;;;;;;;;;;1.50;69.21;99470.73;122898;1103;104688;-71
2021/01/14 12:23:59;;;;;;;;;;;;;;;1.43;69.98;99471.31;122943;1106;104613;-71
2021/01/14 12:26:25;;;;;;;;;;;;;;;1.33;69.23;99481.67;122929;1103;104667;-71
2021/01/14 12:28:50;;;;;;;;;;;;;;;1.35;69.44;99482.39;122981;1103;104695;-71
2021/01/14 12:31:16;;;;;;;;;;;;;;;1.38;69.90;99482.98;122864;1106;105157;-71
2021/01/14 12:33:42;;;;;;;;;;;;;;;1.37;70.32;99481.32;122861;1103;104573;-71
2021/01/14 12:36:07;;;;;;;;;;;;;;;1.36;70.46;99484.05;122946;1103;104689;-71
2021/01/14 12:38:33;;;;;;;;;;;;;;;1.31;69.44;99491.43;122873;1102;104606;-71
2021/01/14 12:40:58;;;;;;;;;;;;;;;1.28;70.40;99489.05;122929;1103;104621;-71